KLXV Airport Information

Runway Information
Runway 16 Length 6400 ft width 75 ft
Elevation 9925 ft Threshold ft Heading 170
Runway 34 Length 6400 ft Width 75 ft
Elevation 9919 ft Threshold ft Heading 350
Airport Frequencies
Type ASOS Name ASOS Frequency 118.375 MHZ
Type CNTR Name DENVER CNT Frequency 119.85 MHZ
Type UNIC Name CTAF/UNICO Frequency 122.8 MHZ
Airport Navaids
Airport Weather Information & NOTAM
ADDS - METARS form results

(1549 UTC 05 October 2022)
Data provider http://aviationweather.gov/metar/data/
 
METAR text: KLXV 051453Z AUTO 00000KT 10SM CLR 03/M01 A3047 RMK AO2 SLP232 T00281006 53007
Conditions at: KLXV (LEADVILLE , CO, US) observed 1453 UTC 05 October 2022
Temperature: 2.8°C (37°F)
Dewpoint: -0.6°C (31°F) [RH = 78%]
Pressure (altimeter): 30.47 inches Hg (1031.9 mb)
[Sea-level pressure: 1023.2 mb]
Winds: calm
Visibility: 10 or more miles (16+ km)
Ceiling: at least 12,000 feet AGL
Clouds: sky clear below 12,000 feet AGL
Weather: automated observation with no human augmentation;
there may or may not be significant weather present at this time